createdAt,value
2022-08-05T00:00:06.178Z,97.80
2022-08-05T00:06:51.799Z,98.20
2022-08-05T00:13:39.084Z,98.00
2022-08-05T00:20:22.319Z,98.60
2022-08-05T00:27:16.518Z,99.90
2022-08-05T00:34:53.219Z,99.10
2022-08-05T00:41:02.713Z,98.60
2022-08-05T00:47:57.018Z,98.40
2022-08-05T00:54:49.797Z,98.30
2022-08-05T01:01:42.526Z,99.90
2022-08-05T01:08:43.344Z,99.90
2022-08-05T01:15:36.828Z,97.40
2022-08-05T01:22:35.381Z,94.80
2022-08-05T01:29:24.696Z,93.60
2022-08-05T01:36:16.724Z,92.10
2022-08-05T01:43:22.133Z,92.00
2022-08-05T01:50:18.878Z,91.80
2022-08-05T01:58:09.431Z,92.20
2022-08-05T02:04:18.689Z,92.40
2022-08-05T02:11:12.606Z,92.80
2022-08-05T02:18:30.569Z,93.10
2022-08-05T02:25:23.238Z,93.20
2022-08-05T02:32:12.177Z,93.90
2022-08-05T02:39:13.254Z,93.80
2022-08-05T02:46:01.074Z,94.40
2022-08-05T02:52:47.482Z,94.80
2022-08-05T02:59:47.725Z,95.30
2022-08-05T03:06:54.300Z,95.40
2022-08-05T03:13:51.694Z,95.50
2022-08-05T03:20:44.641Z,96.10
2022-08-05T03:27:39.237Z,97.60
2022-08-05T03:34:38.059Z,97.10
2022-08-05T03:41:24.710Z,96.90
2022-08-05T03:48:10.405Z,97.10
2022-08-05T03:56:01.437Z,96.80
2022-08-05T04:02:04.446Z,97.60
2022-08-05T04:08:48.674Z,97.50
2022-08-05T04:15:32.728Z,97.70
2022-08-05T04:22:15.760Z,98.50
2022-08-05T04:29:07.137Z,98.00
2022-08-05T04:36:11.358Z,98.70
2022-08-05T04:42:52.220Z,98.80
2022-08-05T04:50:01.162Z,98.30
2022-08-05T04:56:37.541Z,99.30
2022-08-05T05:03:20.522Z,99.90
2022-08-05T05:10:06.263Z,98.30
2022-08-05T05:16:50.592Z,98.00
2022-08-05T05:23:39.041Z,97.80
2022-08-05T05:30:35.513Z,95.60
2022-08-05T05:37:17.886Z,93.00
2022-08-05T05:44:00.818Z,91.20
2022-08-05T05:50:44.399Z,90.30
2022-08-05T05:57:42.648Z,88.50
2022-08-05T06:04:26.198Z,86.00
2022-08-05T06:11:09.000Z,84.20
2022-08-05T06:17:55.759Z,83.40
2022-08-05T06:24:48.181Z,82.00
2022-08-05T06:31:32.226Z,81.40
2022-08-05T06:38:16.005Z,79.50
2022-08-05T06:44:58.501Z,77.60
2022-08-05T06:51:40.990Z,79.00
2022-08-05T06:58:35.094Z,77.80
2022-08-05T07:05:21.361Z,75.40
2022-08-05T07:12:06.078Z,72.60
2022-08-05T07:18:49.110Z,76.10
2022-08-05T07:25:56.288Z,76.40
2022-08-05T07:32:37.877Z,73.70
2022-08-05T07:39:24.748Z,71.30
2022-08-05T07:46:25.001Z,71.90
2022-08-05T07:53:09.052Z,72.40
2022-08-05T07:59:55.634Z,70.10
2022-08-05T08:06:38.309Z,68.90
2022-08-05T08:13:28.809Z,68.10
2022-08-05T08:20:42.898Z,66.70
2022-08-05T08:27:16.635Z,65.40
2022-08-05T08:33:59.107Z,63.90
2022-08-05T08:40:45.687Z,63.70
2022-08-05T08:48:06.297Z,64.60
2022-08-05T08:54:38.045Z,64.10
2022-08-05T09:01:24.916Z,64.10
2022-08-05T09:08:09.863Z,63.30
2022-08-05T09:14:59.580Z,65.10
2022-08-05T09:22:22.561Z,64.60
2022-08-05T09:28:59.155Z,64.10
2022-08-05T09:36:11.617Z,63.00
2022-08-05T09:42:59.060Z,62.70
2022-08-05T09:50:01.695Z,62.00
2022-08-05T09:56:51.770Z,61.70
2022-08-05T10:03:56.520Z,61.60
2022-08-05T10:10:44.133Z,61.10
2022-08-05T10:17:37.268Z,60.00
2022-08-05T10:24:24.970Z,60.00
2022-08-05T10:32:49.649Z,60.20
2022-08-05T10:38:15.163Z,58.00
2022-08-05T10:44:58.322Z,58.40
2022-08-05T10:51:53.132Z,58.40
2022-08-05T10:59:07.230Z,58.30
2022-08-05T11:06:08.366Z,60.70
2022-08-05T11:12:58.346Z,61.60
2022-08-05T11:20:11.016Z,62.10
2022-08-05T11:27:50.164Z,63.20
2022-08-05T11:34:37.899Z,62.80
2022-08-05T11:42:00.786Z,62.90
2022-08-05T11:48:44.509Z,63.40
2022-08-05T12:38:59.558Z,63.10
2022-08-05T12:45:56.213Z,63.10
2022-08-05T12:52:42.386Z,63.30
2022-08-05T13:01:59.712Z,63.50
2022-08-05T13:06:58.512Z,63.70
2022-08-05T13:14:04.608Z,63.50
2022-08-05T13:20:44.748Z,63.60
2022-08-05T13:27:37.929Z,63.30
2022-08-05T13:34:25.985Z,63.20
2022-08-05T13:41:08.726Z,63.10
2022-08-05T13:48:09.631Z,63.20
2022-08-05T13:54:54.053Z,62.70
2022-08-05T14:01:46.491Z,63.10
2022-08-05T14:08:39.658Z,64.00
2022-08-05T14:16:08.602Z,63.80
2022-08-05T14:22:24.896Z,64.60
2022-08-05T14:29:16.206Z,64.60
2022-08-05T14:36:00.168Z,65.10
2022-08-05T14:42:44.735Z,65.70
2022-08-05T14:49:56.430Z,65.80
2022-08-05T14:56:30.635Z,66.70
2022-08-05T15:03:13.222Z,68.60
2022-08-05T15:09:56.088Z,69.00
2022-08-05T15:16:39.154Z,69.30
2022-08-05T15:23:22.810Z,70.40
2022-08-05T15:30:05.753Z,71.80
2022-08-05T15:36:48.131Z,81.80
2022-08-05T15:43:30.547Z,92.40
2022-08-05T15:50:28.632Z,92.50
2022-08-05T15:57:12.410Z,90.10
2022-08-05T16:03:55.301Z,89.30
2022-08-05T16:10:38.083Z,88.50
2022-08-05T16:17:24.329Z,87.90
2022-08-05T16:24:39.970Z,87.70
2022-08-05T16:31:24.699Z,87.70
2022-08-05T16:38:15.156Z,87.00
2022-08-05T16:44:59.056Z,87.00
2022-08-05T16:51:50.423Z,86.70
2022-08-05T16:58:33.997Z,86.80
2022-08-05T17:05:17.670Z,87.20
2022-08-05T17:12:03.473Z,87.40
2022-08-05T17:18:46.833Z,87.90
2022-08-05T17:25:40.134Z,88.40
2022-08-05T17:32:23.784Z,88.30
2022-08-05T17:39:24.500Z,88.80
2022-08-05T17:46:10.817Z,89.10
2022-08-05T17:52:55.077Z,89.40
2022-08-05T17:59:40.071Z,90.00
2022-08-05T18:06:29.516Z,90.20
2022-08-05T18:13:13.745Z,91.50
2022-08-05T18:19:56.144Z,92.60
2022-08-05T18:26:40.554Z,93.70
2022-08-05T18:33:24.304Z,94.30
2022-08-05T18:41:50.639Z,94.50
2022-08-05T18:47:10.046Z,95.00
2022-08-05T18:53:54.783Z,95.30
2022-08-05T19:00:37.286Z,95.60
2022-08-05T19:07:19.920Z,95.80
2022-08-05T19:14:15.268Z,96.00
2022-08-05T19:21:04.956Z,96.50
2022-08-05T19:27:49.792Z,97.20
2022-08-05T19:34:34.554Z,96.70
2022-08-05T19:41:17.513Z,96.90
2022-08-05T19:48:05.781Z,96.60
2022-08-05T19:54:48.377Z,96.30
2022-08-05T20:01:31.944Z,95.90
2022-08-05T20:08:16.883Z,95.80
2022-08-05T20:14:59.363Z,96.70
2022-08-05T20:28:27.047Z,99.90
2022-08-05T20:35:09.500Z,99.90
2022-08-05T20:41:54.217Z,99.90
2022-08-05T20:48:42.773Z,99.90
2022-08-05T20:56:07.309Z,99.90
2022-08-05T21:02:27.675Z,99.90
2022-08-05T21:09:11.266Z,99.90
2022-08-05T21:15:56.613Z,99.90
2022-08-05T21:22:40.364Z,99.90
2022-08-05T21:29:23.405Z,99.90
2022-08-05T21:36:09.050Z,99.90
2022-08-05T21:42:53.941Z,99.90
2022-08-05T21:49:48.474Z,99.90
2022-08-05T21:56:44.543Z,99.90
2022-08-05T22:03:52.067Z,99.90
2022-08-05T22:10:35.323Z,99.90
2022-08-05T22:17:18.116Z,99.90
2022-08-05T22:24:40.004Z,99.90
2022-08-05T22:31:21.308Z,99.90
2022-08-05T22:38:04.796Z,99.90
2022-08-05T22:44:56.233Z,99.90
2022-08-05T22:52:05.658Z,99.90
2022-08-05T22:58:43.766Z,99.90
2022-08-05T23:05:26.344Z,99.90
2022-08-05T23:12:09.420Z,99.50
2022-08-05T23:18:53.319Z,98.80
2022-08-05T23:25:52.817Z,98.00
2022-08-05T23:32:36.204Z,98.80
2022-08-05T23:39:31.901Z,97.10
2022-08-05T23:46:28.768Z,97.60
2022-08-05T23:53:22.649Z,97.50
